Time;durP1;ratioP1;P1;durP2;ratioP2;P2;SDS_P1;SDS_P2;PMS_P1;PMS_P2;Temp;Humidity;BMP_temperature;BMP_pressure;BME280_temperature;BME280_humidity;BME280_pressure;Samples;Min_cycle;Max_cycle;Signal;HPM_P1;HPM_P2
2023/08/06 00:00:02;;;;;;;31.10;28.27;;;15.50;81.50;;;;;;5069718;28;20941;-66
2023/08/06 00:02:30;;;;;;;23.63;21.57;;;15.50;81.40;;;;;;5071556;28;20833;-66
2023/08/06 00:04:57;;;;;;;19.73;17.93;;;15.50;81.00;;;;;;5070418;28;20249;-65
2023/08/06 00:07:24;;;;;;;19.63;16.80;;;15.50;80.90;;;;;;5072644;28;20182;-67
2023/08/06 00:09:51;;;;;;;21.27;16.53;;;15.50;80.70;;;;;;5069793;28;20183;-65
2023/08/06 00:12:19;;;;;;;20.53;14.93;;;15.60;80.90;;;;;;5070822;28;20182;-65
2023/08/06 00:14:50;;;;;;;18.13;16.50;;;15.60;80.60;;;;;;5067257;28;20185;-65
2023/08/06 00:17:18;;;;;;;16.77;13.90;;;15.70;80.40;;;;;;5069410;28;20183;-65
2023/08/06 00:19:45;;;;;;;15.40;13.07;;;15.70;80.40;;;;;;5072715;28;20518;-67
2023/08/06 00:22:13;;;;;;;13.77;11.43;;;15.80;80.00;;;;;;5071778;28;20672;-63
2023/08/06 00:24:40;;;;;;;19.57;10.73;;;15.70;79.40;;;;;;5071211;28;20676;-66
2023/08/06 00:27:08;;;;;;;14.30;9.63;;;15.70;79.00;;;;;;5072019;28;20241;-63
2023/08/06 00:29:35;;;;;;;15.50;9.57;;;15.70;79.10;;;;;;5070929;28;20211;-65
2023/08/06 00:32:02;;;;;;;11.47;9.20;;;15.70;78.70;;;;;;5070519;28;20238;-64
2023/08/06 00:34:30;;;;;;;15.87;8.27;;;15.80;78.60;;;;;;5070102;28;20656;-65
2023/08/06 00:36:57;;;;;;;14.10;8.23;;;15.90;78.60;;;;;;5070141;28;20187;-65
2023/08/06 00:39:24;;;;;;;12.17;6.00;;;15.90;78.50;;;;;;5070674;28;20636;-64
2023/08/06 00:41:52;;;;;;;16.87;7.23;;;15.80;77.20;;;;;;5069029;28;20706;-65
2023/08/06 00:44:19;;;;;;;9.63;5.83;;;15.90;77.70;;;;;;5070769;28;20194;-64
2023/08/06 00:46:46;;;;;;;12.63;5.37;;;16.00;78.00;;;;;;5071279;28;20179;-65
2023/08/06 00:49:14;;;;;;;13.20;5.53;;;16.00;77.30;;;;;;5071215;28;20579;-65
2023/08/06 00:51:42;;;;;;;9.47;5.33;;;16.10;77.40;;;;;;5069412;28;20262;-64
2023/08/06 00:54:10;;;;;;;11.60;6.07;;;16.10;76.90;;;;;;5074625;28;20184;-65
2023/08/06 00:56:38;;;;;;;13.43;5.30;;;16.20;77.20;;;;;;5071271;28;20198;-65
2023/08/06 00:59:07;;;;;;;10.30;5.30;;;16.20;75.70;;;;;;5070701;28;20656;-65
2023/08/06 01:01:34;;;;;;;6.87;4.40;;;16.20;76.10;;;;;;5071096;28;20685;-64
2023/08/06 01:04:02;;;;;;;13.80;4.73;;;16.30;75.50;;;;;;5068392;28;20185;-65
2023/08/06 01:06:49;;;;;;;10.23;4.17;;;16.50;75.50;;;;;;5067645;28;20191;-65
2023/08/06 01:09:19;;;;;;;9.80;4.27;;;16.50;75.20;;;;;;5069164;28;20196;-65
2023/08/06 01:12:30;;;;;;;11.57;4.37;;;16.40;75.10;;;;;;5069355;28;20172;-66
2023/08/06 01:15:12;;;;;;;11.63;3.93;;;16.50;74.80;;;;;;5066300;28;20186;-62
2023/08/06 01:17:40;;;;;;;9.03;3.87;;;16.40;74.50;;;;;;5069832;28;20653;-64
2023/08/06 01:20:08;;;;;;;12.87;3.70;;;16.30;74.80;;;;;;5070672;28;20183;-63
2023/08/06 01:22:36;;;;;;;13.00;3.47;;;16.40;73.60;;;;;;5069111;28;20213;-64
2023/08/06 01:25:03;;;;;;;9.13;3.73;;;16.40;73.80;;;;;;5066754;28;20181;-65
2023/08/06 01:27:55;;;;;;;7.63;3.07;;;16.30;74.00;;;;;;5071325;28;20663;-64
2023/08/06 01:30:35;;;;;;;8.80;3.33;;;16.50;74.10;;;;;;5071209;28;20187;-65
2023/08/06 01:33:06;;;;;;;8.63;3.80;;;16.60;73.30;;;;;;5067637;28;20692;-64
2023/08/06 01:35:34;;;;;;;11.30;3.80;;;16.70;73.70;;;;;;5068105;28;20224;-63
2023/08/06 01:38:03;;;;;;;15.33;3.70;;;16.80;73.10;;;;;;5067615;28;20197;-66
2023/08/06 01:40:31;;;;;;;8.00;3.03;;;16.90;72.50;;;;;;5071076;28;20202;-66
2023/08/06 01:42:59;;;;;;;9.97;3.10;;;16.80;72.40;;;;;;5072683;28;20697;-64
2023/08/06 01:45:26;;;;;;;8.60;2.77;;;16.70;72.30;;;;;;5073901;28;20184;-68
2023/08/06 01:47:53;;;;;;;12.07;3.37;;;16.70;72.50;;;;;;5075034;28;20206;-65
2023/08/06 01:50:21;;;;;;;7.77;3.17;;;16.70;72.70;;;;;;5074275;28;20183;-64
2023/08/06 01:52:48;;;;;;;5.63;2.90;;;16.70;72.80;;;;;;5074223;28;20273;-63
2023/08/06 01:55:15;;;;;;;8.60;2.50;;;16.70;72.60;;;;;;5073999;28;20187;-63
2023/08/06 01:57:44;;;;;;;12.20;3.20;;;16.70;72.90;;;;;;5071849;28;20189;-63
2023/08/06 02:00:12;;;;;;;5.77;2.60;;;16.70;73.00;;;;;;5072328;28;20186;-63
2023/08/06 02:02:40;;;;;;;11.30;2.90;;;16.80;72.70;;;;;;5069618;28;20253;-65
2023/08/06 02:05:08;;;;;;;10.27;2.33;;;16.80;72.70;;;;;;5074485;28;20188;-64
2023/08/06 02:07:35;;;;;;;10.03;2.53;;;16.80;72.90;;;;;;5069048;28;20190;-64
2023/08/06 02:10:03;;;;;;;8.97;2.40;;;16.90;72.00;;;;;;5073275;28;20704;-66
2023/08/06 02:12:30;;;;;;;11.23;2.40;;;17.10;71.50;;;;;;5072006;28;20183;-65
2023/08/06 02:14:57;;;;;;;9.90;2.20;;;17.00;71.50;;;;;;5069743;28;20178;-64
2023/08/06 02:17:24;;;;;;;10.90;2.60;;;16.90;71.30;;;;;;5072512;28;20171;-64
2023/08/06 02:19:52;;;;;;;9.83;2.70;;;17.20;71.50;;;;;;5074188;28;20682;-66
2023/08/06 02:22:19;;;;;;;10.03;2.70;;;17.20;70.80;;;;;;5089675;28;20307;-67
2023/08/06 02:24:46;;;;;;;5.13;1.93;;;17.20;70.80;;;;;;5073992;28;20534;-65
2023/08/06 02:27:14;;;;;;;16.37;2.63;;;17.20;70.20;;;;;;5073378;28;20187;-69
2023/08/06 02:29:41;;;;;;;11.73;2.40;;;17.20;70.70;;;;;;5081774;28;20187;-62
2023/08/06 02:32:09;;;;;;;9.70;1.97;;;17.30;70.10;;;;;;5067257;28;20219;-63
2023/08/06 02:44:41;;;;;;;7.83;2.10;;;18.00;67.50;;;;;;5072642;28;20194;-64
2023/08/06 02:47:08;;;;;;;7.33;2.33;;;17.80;68.50;;;;;;5072700;28;20184;-65
2023/08/06 02:49:36;;;;;;;8.67;2.07;;;17.80;68.10;;;;;;5067729;28;20212;-65
2023/08/06 02:52:03;;;;;;;7.77;2.00;;;18.00;67.70;;;;;;5069854;28;20603;-66
2023/08/06 02:54:31;;;;;;;5.90;2.00;;;17.90;68.00;;;;;;5072519;28;20676;-64
2023/08/06 02:56:58;;;;;;;8.47;2.10;;;18.10;68.40;;;;;;5072754;28;20656;-63
2023/08/06 02:59:25;;;;;;;9.57;2.37;;;18.10;67.90;;;;;;5072341;28;20673;-64
2023/08/06 03:01:52;;;;;;;8.13;2.10;;;17.90;68.40;;;;;;5072677;28;20233;-64
2023/08/06 03:04:20;;;;;;;9.60;2.40;;;17.80;67.90;;;;;;5071905;28;20319;-66
2023/08/06 03:06:47;;;;;;;9.10;2.17;;;17.80;68.30;;;;;;5072685;28;20190;-63
2023/08/06 03:09:14;;;;;;;6.97;2.07;;;17.40;68.70;;;;;;5072373;28;20179;-63
2023/08/06 03:11:42;;;;;;;9.97;2.87;;;17.50;69.50;;;;;;5070654;28;20261;-63
2023/08/06 03:14:09;;;;;;;6.93;2.53;;;17.30;69.30;;;;;;5071327;28;20207;-63
2023/08/06 03:16:36;;;;;;;11.60;2.30;;;17.20;70.10;;;;;;5071772;28;20646;-64
2023/08/06 03:19:04;;;;;;;11.13;2.33;;;17.20;70.50;;;;;;5070534;28;20323;-65
2023/08/06 03:21:31;;;;;;;15.37;3.20;;;17.10;69.70;;;;;;5071359;28;20251;-64
2023/08/06 03:23:58;;;;;;;11.20;2.50;;;17.20;69.80;;;;;;5064344;28;20195;-66
2023/08/06 03:26:26;;;;;;;5.47;1.87;;;17.20;69.70;;;;;;5071240;28;20658;-64
2023/08/06 03:28:53;;;;;;;5.07;1.70;;;17.30;68.80;;;;;;5071901;28;20272;-65
2023/08/06 03:31:21;;;;;;;5.23;1.63;;;17.40;69.60;;;;;;4966208;28;2967319;-65
2023/08/06 03:33:48;;;;;;;6.57;1.90;;;17.50;68.70;;;;;;5071615;28;20192;-66
2023/08/06 03:36:15;;;;;;;9.87;2.30;;;17.60;68.40;;;;;;5072643;28;20183;-63
2023/08/06 03:38:43;;;;;;;7.73;1.83;;;17.70;67.80;;;;;;5072128;28;20186;-63
2023/08/06 03:41:10;;;;;;;9.20;2.30;;;17.80;67.50;;;;;;5069744;28;20676;-63
2023/08/06 03:43:37;;;;;;;9.87;2.70;;;17.90;67.50;;;;;;5065419;28;20239;-66
2023/08/06 03:46:05;;;;;;;12.30;3.07;;;17.70;67.20;;;;;;5071179;28;20194;-63
2023/08/06 03:48:32;;;;;;;8.57;2.30;;;17.80;67.60;;;;;;5062140;28;20182;-63
2023/08/06 03:51:01;;;;;;;7.87;2.00;;;17.80;67.60;;;;;;5070439;28;20186;-64
2023/08/06 03:53:29;;;;;;;8.47;2.03;;;17.80;67.60;;;;;;5070870;28;20225;-64
2023/08/06 03:55:59;;;;;;;4.87;1.80;;;17.90;67.40;;;;;;5071235;28;20192;-63
2023/08/06 03:58:27;;;;;;;8.83;2.10;;;17.70;67.60;;;;;;5067979;28;20178;-65
2023/08/06 04:01:04;;;;;;;8.70;2.07;;;17.50;67.60;;;;;;5071690;28;20198;-64
2023/08/06 04:03:31;;;;;;;6.67;2.27;;;17.50;68.20;;;;;;5070955;28;20240;-66
2023/08/06 04:05:58;;;;;;;9.77;2.07;;;17.50;68.60;;;;;;5072246;28;20222;-64
2023/08/06 04:08:26;;;;;;;12.27;2.13;;;17.50;67.20;;;;;;5071723;28;20253;-63
2023/08/06 04:10:54;;;;;;;7.10;2.13;;;17.50;67.90;;;;;;5069624;28;20213;-64
2023/08/06 04:13:21;;;;;;;7.23;2.33;;;17.50;67.80;;;;;;5069952;28;20175;-66
2023/08/06 04:15:49;;;;;;;7.53;1.97;;;17.40;67.90;;;;;;5070990;28;20195;-64
2023/08/06 04:18:17;;;;;;;5.20;1.90;;;17.20;68.20;;;;;;5070737;28;20213;-62
2023/08/06 04:20:49;;;;;;;11.57;2.07;;;17.20;68.40;;;;;;5085755;28;20191;-64
2023/08/06 04:23:16;;;;;;;5.87;2.03;;;17.30;68.90;;;;;;5070206;28;20241;-63
2023/08/06 04:25:44;;;;;;;8.80;2.10;;;17.40;68.60;;;;;;5071480;28;20218;-65
2023/08/06 04:28:11;;;;;;;4.70;1.87;;;17.50;68.40;;;;;;5070968;28;20575;-67
2023/08/06 04:30:38;;;;;;;11.07;2.03;;;17.40;68.10;;;;;;5070503;28;20206;-64
2023/08/06 04:33:06;;;;;;;9.07;2.10;;;17.30;68.40;;;;;;5073989;28;20226;-64
2023/08/06 04:35:33;;;;;;;11.13;2.33;;;17.30;68.70;;;;;;5071038;28;20362;-64
2023/08/06 04:38:00;;;;;;;8.53;2.40;;;17.30;68.80;;;;;;5071732;28;20193;-64
2023/08/06 04:40:27;;;;;;;7.33;2.37;;;17.30;68.90;;;;;;5069628;28;20653;-65
2023/08/06 04:42:55;;;;;;;10.50;2.27;;;17.30;69.50;;;;;;5067165;28;20266;-65
2023/08/06 04:45:24;;;;;;;7.30;2.13;;;17.30;68.80;;;;;;5066204;28;20177;-70
2023/08/06 04:47:51;;;;;;;7.33;2.13;;;17.30;69.20;;;;;;5066679;28;20192;-64
2023/08/06 04:50:22;;;;;;;5.30;2.57;;;17.30;69.20;;;;;;5068683;28;20705;-67
2023/08/06 04:52:49;;;;;;;6.53;1.80;;;17.10;69.20;;;;;;5069941;28;20186;-64
2023/08/06 04:55:17;;;;;;;7.47;1.90;;;17.20;69.60;;;;;;5069019;28;20191;-64
2023/08/06 04:57:45;;;;;;;4.27;1.70;;;17.00;69.10;;;;;;5068932;28;20189;-66
2023/08/06 05:00:12;;;;;;;7.97;1.70;;;17.10;69.40;;;;;;5068472;28;20200;-66
2023/08/06 05:02:40;;;;;;;4.57;1.33;;;17.00;68.50;;;;;;5070406;28;20305;-65
2023/08/06 05:05:07;;;;;;;8.53;2.10;;;17.00;68.60;;;;;;5070247;28;20524;-68
2023/08/06 05:07:35;;;;;;;6.93;1.80;;;16.90;68.90;;;;;;5068514;28;20183;-65
2023/08/06 05:10:04;;;;;;;5.87;2.00;;;16.90;69.10;;;;;;5070016;28;20282;-64
2023/08/06 05:12:31;;;;;;;9.73;1.83;;;16.80;68.90;;;;;;5068331;28;20254;-64
2023/08/06 05:14:58;;;;;;;4.97;2.27;;;16.80;69.00;;;;;;5071619;28;20189;-64
2023/08/06 05:17:26;;;;;;;4.70;1.70;;;16.80;68.90;;;;;;5071264;28;20626;-66
2023/08/06 05:19:53;;;;;;;5.27;1.83;;;16.80;69.10;;;;;;5071678;28;20287;-64
2023/08/06 05:22:21;;;;;;;8.43;2.03;;;16.70;69.00;;;;;;5071416;28;20355;-64
2023/08/06 05:24:48;;;;;;;6.63;1.53;;;16.80;69.10;;;;;;5065592;28;20779;-64
2023/08/06 05:27:15;;;;;;;7.63;1.70;;;16.70;68.80;;;;;;5071509;28;20205;-65
2023/08/06 05:29:43;;;;;;;9.27;1.43;;;16.70;68.30;;;;;;5071738;28;20181;-68
2023/08/06 05:32:10;;;;;;;4.67;1.67;;;16.70;68.00;;;;;;5071493;28;20238;-66
2023/08/06 05:34:38;;;;;;;5.97;1.90;;;16.70;68.00;;;;;;5071723;28;20185;-65
2023/08/06 05:37:05;;;;;;;3.07;1.80;;;16.60;67.90;;;;;;5071771;28;20299;-66
2023/08/06 05:39:33;;;;;;;3.27;1.50;;;16.60;67.50;;;;;;5071304;28;20231;-70
2023/08/06 05:42:00;;;;;;;4.67;1.30;;;16.60;67.40;;;;;;5069628;28;20330;-67
2023/08/06 05:44:27;;;;;;;10.57;1.60;;;16.50;67.30;;;;;;5065519;28;20186;-70
2023/08/06 05:46:54;;;;;;;6.10;1.97;;;16.50;67.60;;;;;;5071569;28;20202;-69
2023/08/06 05:49:22;;;;;;;5.03;1.73;;;16.50;68.50;;;;;;5071243;28;20239;-66
2023/08/06 05:51:49;;;;;;;7.70;2.23;;;16.50;68.20;;;;;;5071207;28;20543;-68
2023/08/06 05:54:16;;;;;;;5.80;1.60;;;16.50;68.50;;;;;;5070855;28;20189;-65
2023/08/06 05:56:44;;;;;;;7.03;1.63;;;16.60;68.10;;;;;;5071959;28;20178;-69
2023/08/06 05:59:11;;;;;;;6.77;2.20;;;16.50;68.10;;;;;;5070897;28;20281;-65
2023/08/06 06:01:38;;;;;;;4.60;1.70;;;16.60;68.10;;;;;;5064103;28;20217;-68
2023/08/06 06:04:05;;;;;;;6.17;2.13;;;16.50;68.00;;;;;;5071284;28;20228;-66
2023/08/06 06:06:33;;;;;;;6.13;1.77;;;16.60;68.20;;;;;;5071292;28;20197;-64
2023/08/06 06:09:00;;;;;;;3.93;1.30;;;16.50;68.60;;;;;;5071074;28;20231;-65
2023/08/06 06:11:27;;;;;;;6.00;1.70;;;16.40;68.10;;;;;;5070897;28;20210;-64
2023/08/06 06:13:55;;;;;;;5.40;1.60;;;16.30;67.30;;;;;;5067561;28;20194;-69
2023/08/06 06:16:22;;;;;;;3.83;1.50;;;16.30;68.10;;;;;;5068284;28;21957;-68
2023/08/06 06:18:49;;;;;;;7.17;1.97;;;16.20;67.40;;;;;;5065322;28;20325;-68
2023/08/06 06:21:17;;;;;;;7.27;2.00;;;16.20;68.30;;;;;;5067119;28;20519;-66
2023/08/06 06:23:44;;;;;;;7.50;1.90;;;16.20;68.50;;;;;;5070722;28;20218;-72
2023/08/06 06:26:11;;;;;;;11.33;1.87;;;16.20;68.10;;;;;;5073993;28;20181;-65
2023/08/06 06:28:38;;;;;;;6.83;1.73;;;16.20;68.40;;;;;;5073943;28;20245;-69
2023/08/06 06:31:06;;;;;;;7.97;1.90;;;16.10;68.60;;;;;;5089903;28;20194;-68
2023/08/06 06:33:33;;;;;;;9.00;1.70;;;16.10;68.90;;;;;;5072696;28;20186;-66
2023/08/06 06:36:03;;;;;;;5.57;1.57;;;16.10;69.00;;;;;;5073813;28;20196;-70
2023/08/06 06:38:30;;;;;;;7.17;2.03;;;16.10;69.30;;;;;;5074325;28;20175;-72
2023/08/06 06:40:58;;;;;;;8.73;2.00;;;16.10;68.90;;;;;;5072134;28;20183;-64
2023/08/06 06:43:26;;;;;;;5.97;1.53;;;16.10;68.60;;;;;;5069263;28;20195;-64
2023/08/06 06:46:00;;;;;;;5.20;1.73;;;16.20;68.70;;;;;;5072950;28;20193;-65
2023/08/06 06:48:29;;;;;;;6.40;1.70;;;16.20;68.70;;;;;;5072800;28;20650;-64
2023/08/06 06:50:57;;;;;;;10.57;2.13;;;16.20;68.70;;;;;;5070728;28;20189;-64
2023/08/06 06:53:28;;;;;;;8.63;1.80;;;16.20;68.50;;;;;;5067957;28;20188;-68
2023/08/06 06:56:04;;;;;;;8.40;1.77;;;16.10;68.10;;;;;;5073702;28;20271;-65
2023/08/06 06:58:32;;;;;;;4.83;1.50;;;16.10;68.20;;;;;;5071165;28;20196;-65
2023/08/06 07:00:59;;;;;;;5.70;1.77;;;16.10;68.30;;;;;;5073873;28;20195;-64
2023/08/06 07:03:27;;;;;;;4.47;1.53;;;16.10;68.30;;;;;;5073953;28;20234;-65
2023/08/06 07:05:59;;;;;;;7.63;2.13;;;16.00;67.90;;;;;;5080735;28;20636;-64
2023/08/06 07:08:27;;;;;;;9.10;2.10;;;16.00;68.10;;;;;;5074117;28;20764;-63
2023/08/06 07:11:07;;;;;;;4.20;2.30;;;15.90;68.20;;;;;;5073986;28;20198;-64
2023/08/06 07:13:35;;;;;;;5.27;1.80;;;15.80;68.40;;;;;;5072428;28;20270;-64
2023/08/06 07:16:03;;;;;;;10.87;2.93;;;15.70;68.40;;;;;;5072156;28;20679;-64
2023/08/06 07:18:30;;;;;;;5.00;2.00;;;15.60;69.00;;;;;;5073273;28;20184;-65
2023/08/06 07:20:57;;;;;;;4.10;1.70;;;15.60;69.50;;;;;;5072992;28;20179;-65
2023/08/06 07:23:26;;;;;;;11.13;2.40;;;15.50;70.20;;;;;;5078495;28;20198;-67
2023/08/06 07:25:54;;;;;;;7.53;2.47;;;15.40;70.80;;;;;;5073554;28;20186;-64
2023/08/06 07:28:22;;;;;;;9.10;2.60;;;15.40;71.20;;;;;;5072996;28;20187;-64
2023/08/06 07:30:49;;;;;;;8.77;2.50;;;15.30;72.00;;;;;;5071881;28;20185;-64
2023/08/06 07:33:16;;;;;;;6.13;2.03;;;15.20;72.10;;;;;;5070969;28;20238;-64
2023/08/06 07:35:44;;;;;;;4.83;2.40;;;15.20;72.70;;;;;;5070314;28;20535;-64
2023/08/06 07:38:11;;;;;;;16.93;2.50;;;15.10;72.80;;;;;;5070352;28;20211;-65
2023/08/06 07:40:39;;;;;;;5.93;2.10;;;15.00;73.20;;;;;;5071681;28;20190;-64
2023/08/06 07:43:06;;;;;;;10.17;2.30;;;15.00;73.60;;;;;;5071029;28;20215;-65
2023/08/06 07:45:35;;;;;;;6.33;2.37;;;14.90;74.00;;;;;;5071846;28;20273;-64
2023/08/06 07:48:03;;;;;;;6.20;1.83;;;14.90;74.30;;;;;;5073052;28;20614;-70
2023/08/06 07:50:31;;;;;;;5.80;2.13;;;14.80;74.40;;;;;;5072295;28;20714;-64
2023/08/06 07:52:58;;;;;;;10.23;2.80;;;14.80;75.00;;;;;;5070393;28;20187;-63
2023/08/06 07:55:26;;;;;;;6.00;2.13;;;14.80;75.30;;;;;;5073492;28;20266;-63
2023/08/06 07:57:54;;;;;;;8.60;2.20;;;14.80;75.40;;;;;;5072644;28;20187;-64
2023/08/06 08:00:21;;;;;;;6.50;2.30;;;14.80;75.40;;;;;;5072307;28;20191;-64
2023/08/06 08:02:49;;;;;;;8.27;2.40;;;14.70;75.40;;;;;;5071894;28;20215;-63
2023/08/06 08:05:16;;;;;;;6.23;2.67;;;14.70;75.90;;;;;;5071320;28;20270;-63
2023/08/06 08:07:44;;;;;;;5.87;2.20;;;14.60;75.80;;;;;;5072414;28;20551;-64
2023/08/06 08:10:11;;;;;;;11.37;2.30;;;14.60;76.20;;;;;;5071560;28;20266;-66
2023/08/06 08:12:42;;;;;;;5.80;2.40;;;14.60;76.30;;;;;;5071643;28;20182;-68
2023/08/06 08:15:10;;;;;;;5.97;2.40;;;14.60;76.40;;;;;;5069881;28;20172;-71
2023/08/06 08:17:37;;;;;;;5.47;2.27;;;14.60;76.90;;;;;;5086797;28;20191;-65
2023/08/06 08:20:08;;;;;;;9.87;2.70;;;14.50;77.10;;;;;;5063629;28;20181;-70
2023/08/06 08:22:36;;;;;;;7.27;2.27;;;14.50;77.00;;;;;;5070644;28;20230;-65
2023/08/06 08:25:04;;;;;;;5.03;2.50;;;14.50;77.30;;;;;;5068799;28;20233;-63
2023/08/06 08:27:31;;;;;;;7.47;2.30;;;14.40;77.60;;;;;;5072098;28;21103;-67
2023/08/06 08:29:59;;;;;;;6.13;2.50;;;14.40;77.60;;;;;;5071356;28;20248;-69
2023/08/06 08:32:27;;;;;;;10.43;2.63;;;14.40;77.80;;;;;;5071538;28;20762;-71
2023/08/06 08:35:04;;;;;;;8.83;2.70;;;14.40;77.80;;;;;;5071609;28;20187;-70
2023/08/06 08:37:31;;;;;;;7.97;3.20;;;14.30;78.00;;;;;;5071375;28;20186;-66
2023/08/06 08:40:00;;;;;;;7.10;3.20;;;14.30;78.30;;;;;;5071568;28;20187;-64
2023/08/06 08:42:28;;;;;;;14.20;3.53;;;14.30;78.40;;;;;;5070775;28;20223;-65
2023/08/06 08:44:56;;;;;;;7.10;3.03;;;14.30;78.70;;;;;;5070775;28;20176;-64
2023/08/06 08:47:24;;;;;;;9.03;3.97;;;14.30;78.90;;;;;;5071580;28;20183;-64
2023/08/06 08:49:55;;;;;;;11.97;4.40;;;14.30;79.00;;;;;;5071423;28;20263;-64
2023/08/06 08:52:24;;;;;;;9.77;4.00;;;14.30;79.30;;;;;;5069879;28;20221;-64
2023/08/06 08:54:52;;;;;;;11.53;3.53;;;14.30;79.40;;;;;;5072168;28;20573;-64
2023/08/06 08:57:21;;;;;;;13.40;4.27;;;14.30;79.40;;;;;;5070543;28;20187;-64
2023/08/06 08:59:48;;;;;;;12.17;3.97;;;14.30;79.50;;;;;;5071221;28;20183;-64
2023/08/06 09:02:16;;;;;;;9.10;4.23;;;14.30;79.60;;;;;;5070827;28;20229;-66
2023/08/06 09:04:47;;;;;;;11.57;4.00;;;14.30;79.70;;;;;;5071429;28;20560;-64
2023/08/06 09:07:24;;;;;;;11.17;4.90;;;14.30;79.60;;;;;;5068291;28;20195;-66
2023/08/06 09:10:22;;;;;;;14.03;5.00;;;14.20;79.70;;;;;;5069883;28;20194;-68
2023/08/06 09:12:54;;;;;;;18.10;5.13;;;14.20;80.00;;;;;;5071217;28;20179;-74
2023/08/06 09:15:33;;;;;;;12.33;4.90;;;14.20;80.00;;;;;;5082566;28;21675;-67
2023/08/06 09:18:12;;;;;;;16.80;5.07;;;14.20;80.40;;;;;;5069401;28;20217;-69
2023/08/06 09:20:49;;;;;;;10.63;5.13;;;14.20;80.20;;;;;;5067540;28;20183;-67
2023/08/06 09:23:20;;;;;;;6.77;3.80;;;14.20;80.20;;;;;;5070464;28;20696;-71
2023/08/06 09:25:51;;;;;;;8.67;3.60;;;14.10;80.00;;;;;;5069934;28;20657;-66
2023/08/06 09:28:21;;;;;;;8.53;3.13;;;14.10;79.90;;;;;;5067473;28;20187;-68
2023/08/06 09:30:49;;;;;;;7.03;3.27;;;14.10;80.00;;;;;;5071253;28;20546;-63
2023/08/06 09:33:19;;;;;;;9.80;3.30;;;14.10;80.00;;;;;;5071332;28;20230;-64
2023/08/06 09:35:53;;;;;;;10.30;3.70;;;14.20;80.20;;;;;;5070294;28;20187;-65
2023/08/06 09:38:20;;;;;;;10.33;3.50;;;14.20;80.20;;;;;;5069763;28;20679;-66
2023/08/06 09:40:48;;;;;;;10.03;4.17;;;14.20;80.20;;;;;;5070360;28;20190;-66
2023/08/06 09:43:19;;;;;;;10.83;4.47;;;14.20;80.20;;;;;;5070602;28;20317;-65
2023/08/06 09:45:56;;;;;;;15.70;5.03;;;14.20;80.10;;;;;;5069551;28;20183;-66
2023/08/06 09:48:25;;;;;;;14.17;5.20;;;14.30;80.20;;;;;;5068433;28;20195;-67
2023/08/06 09:50:55;;;;;;;9.50;3.77;;;14.30;79.90;;;;;;5068874;28;20194;-65
2023/08/06 09:53:27;;;;;;;5.57;3.27;;;14.30;79.50;;;;;;5070934;28;20186;-72
2023/08/06 09:55:58;;;;;;;7.83;3.27;;;14.40;79.30;;;;;;5070891;28;20244;-74
2023/08/06 09:58:26;;;;;;;7.13;3.70;;;14.40;79.10;;;;;;5070275;28;20187;-70
2023/08/06 10:01:03;;;;;;;10.70;3.67;;;14.40;78.80;;;;;;5072306;28;20249;-70
2023/08/06 10:03:31;;;;;;;10.10;3.70;;;14.40;78.60;;;;;;5072252;28;20183;-71
2023/08/06 10:06:12;;;;;;;8.17;3.40;;;14.40;78.40;;;;;;5068017;28;20262;-71
2023/08/06 10:08:47;;;;;;;11.83;3.67;;;14.40;78.30;;;;;;5063866;28;20188;-69
2023/08/06 10:11:25;;;;;;;7.90;3.37;;;14.30;78.30;;;;;;5066979;28;20236;-66
2023/08/06 10:14:16;;;;;;;6.97;2.80;;;14.30;78.10;;;;;;5073555;28;20188;-72
2023/08/06 10:16:46;;;;;;;8.73;3.00;;;14.30;78.10;;;;;;5087948;28;20657;-70
2023/08/06 10:19:18;;;;;;;6.17;3.10;;;14.30;78.30;;;;;;5071466;28;20191;-66
2023/08/06 10:22:13;;;;;;;12.60;3.03;;;14.20;78.30;;;;;;5066184;28;20264;-66
2023/08/06 10:24:48;;;;;;;6.57;3.23;;;14.20;78.40;;;;;;5072567;28;20225;-71
2023/08/06 10:27:38;;;;;;;14.67;3.57;;;14.20;78.40;;;;;;5073662;28;20545;-63
2023/08/06 10:30:28;;;;;;;9.87;3.80;;;14.20;78.20;;;;;;5069871;28;20673;-69
2023/08/06 10:33:01;;;;;;;7.43;3.80;;;14.20;78.20;;;;;;5055518;28;20605;-68
2023/08/06 10:35:49;;;;;;;6.73;3.73;;;14.20;78.20;;;;;;5073755;28;20190;-72
2023/08/06 10:38:29;;;;;;;8.33;4.03;;;14.10;78.40;;;;;;5070121;28;20179;-65
2023/08/06 10:40:57;;;;;;;7.23;3.97;;;14.10;78.50;;;;;;5069125;28;20187;-70
2023/08/06 10:43:32;;;;;;;5.80;3.57;;;14.10;78.50;;;;;;5072519;28;20189;-71
2023/08/06 10:46:01;;;;;;;6.73;3.87;;;14.00;78.60;;;;;;5073496;28;20732;-70
2023/08/06 10:48:42;;;;;;;12.43;4.63;;;14.00;78.90;;;;;;5073577;28;20676;-71
2023/08/06 10:51:11;;;;;;;9.13;4.50;;;14.00;79.00;;;;;;5072301;28;20248;-73
2023/08/06 10:53:43;;;;;;;12.47;5.77;;;13.90;79.20;;;;;;5071772;28;20182;-75
2023/08/06 10:56:18;;;;;;;12.03;5.40;;;13.80;79.10;;;;;;5072861;28;20618;-74
2023/08/06 10:58:47;;;;;;;8.67;5.10;;;13.80;79.30;;;;;;5067040;28;20217;-70
2023/08/06 11:01:15;;;;;;;10.90;4.40;;;13.80;79.60;;;;;;5073299;28;20555;-70
2023/08/06 11:03:44;;;;;;;9.37;3.13;;;13.80;79.60;;;;;;5072660;28;20179;-74
2023/08/06 11:06:17;;;;;;;7.33;3.30;;;13.80;79.70;;;;;;5072794;28;20190;-74
2023/08/06 11:08:55;;;;;;;6.87;3.17;;;13.80;79.80;;;;;;5067505;28;20183;-72
2023/08/06 11:11:27;;;;;;;9.23;3.50;;;13.80;79.90;;;;;;5072842;28;20228;-76
2023/08/06 11:13:55;;;;;;;7.17;3.10;;;13.70;80.10;;;;;;5069242;28;20218;-73
2023/08/06 11:16:27;;;;;;;9.90;3.80;;;13.80;80.10;;;;;;5071392;28;20191;-73
2023/08/06 11:18:56;;;;;;;11.83;3.60;;;13.80;80.10;;;;;;5070545;28;20179;-72
2023/08/06 11:21:24;;;;;;;8.43;3.47;;;13.80;80.20;;;;;;5071330;28;20214;-73
2023/08/06 11:23:53;;;;;;;10.37;4.17;;;13.80;80.60;;;;;;5068746;28;20191;-73
2023/08/06 11:26:21;;;;;;;12.67;4.33;;;13.80;80.20;;;;;;5066933;28;20179;-73
2023/08/06 11:28:52;;;;;;;7.60;4.07;;;13.70;80.10;;;;;;5072483;28;20183;-73
2023/08/06 11:31:23;;;;;;;13.90;3.70;;;13.60;80.30;;;;;;5071773;28;20180;-73
2023/08/06 11:33:54;;;;;;;9.43;3.83;;;13.60;80.60;;;;;;5068135;28;20187;-66
2023/08/06 11:36:36;;;;;;;14.53;4.10;;;13.50;80.60;;;;;;5073842;28;20281;-69
2023/08/06 11:39:07;;;;;;;10.03;4.27;;;13.50;80.80;;;;;;5071130;28;20186;-70
2023/08/06 11:41:37;;;;;;;6.57;3.50;;;13.40;80.70;;;;;;5070629;28;20249;-69
2023/08/06 11:44:06;;;;;;;13.43;4.00;;;13.30;80.80;;;;;;5072089;28;20183;-68
2023/08/06 11:46:55;;;;;;;6.20;4.00;;;13.20;81.10;;;;;;5086841;28;20187;-69
2023/08/06 11:49:48;;;;;;;8.40;3.60;;;13.20;81.20;;;;;;5070661;28;20217;-65
2023/08/06 11:52:23;;;;;;;10.03;3.67;;;13.10;81.40;;;;;;5069424;28;20183;-66
2023/08/06 11:55:11;;;;;;;8.53;4.10;;;13.10;81.50;;;;;;5072992;28;20211;-70
2023/08/06 11:57:40;;;;;;;10.87;4.13;;;13.00;81.80;;;;;;5069569;28;20167;-63
2023/08/06 12:00:12;;;;;;;6.43;3.60;;;13.00;81.80;;;;;;5069808;28;20282;-74
2023/08/06 12:02:46;;;;;;;8.73;4.50;;;12.90;81.90;;;;;;5070706;28;20264;-69
2023/08/06 12:05:14;;;;;;;9.73;4.77;;;12.90;82.20;;;;;;5072378;28;20179;-70
2023/08/06 12:07:43;;;;;;;4.97;4.33;;;12.80;82.50;;;;;;5071632;28;20191;-75
2023/08/06 12:10:12;;;;;;;8.33;5.00;;;12.80;82.30;;;;;;5069853;28;20661;-64
2023/08/06 12:12:39;;;;;;;13.53;5.90;;;12.80;82.30;;;;;;5071732;28;20262;-65
2023/08/06 12:15:10;;;;;;;8.80;5.87;;;12.80;82.30;;;;;;5071317;28;20203;-68
2023/08/06 12:17:39;;;;;;;8.93;6.37;;;12.90;82.10;;;;;;5071226;28;20552;-70
2023/08/06 12:20:07;;;;;;;9.13;6.20;;;12.80;82.00;;;;;;5069236;28;20660;-65
2023/08/06 12:22:35;;;;;;;11.33;7.00;;;12.80;82.10;;;;;;5071187;28;20681;-65
2023/08/06 12:25:07;;;;;;;10.83;6.60;;;12.80;82.20;;;;;;5072478;28;20187;-64
2023/08/06 12:27:39;;;;;;;8.47;7.03;;;12.70;82.20;;;;;;5073491;28;20544;-64
2023/08/06 12:30:07;;;;;;;13.00;7.00;;;12.70;82.40;;;;;;5072815;28;20180;-64
2023/08/06 12:32:35;;;;;;;14.37;7.63;;;12.70;82.50;;;;;;5068664;28;20310;-64
2023/08/06 12:35:03;;;;;;;15.77;7.63;;;12.60;82.60;;;;;;5072241;28;20202;-64
2023/08/06 12:37:30;;;;;;;13.20;7.00;;;12.60;82.70;;;;;;5071616;28;20245;-64
2023/08/06 12:39:58;;;;;;;11.43;7.23;;;12.60;82.70;;;;;;5072341;28;20228;-69
2023/08/06 12:42:25;;;;;;;11.87;7.03;;;12.60;82.70;;;;;;5070795;28;20206;-65
2023/08/06 12:44:52;;;;;;;12.13;6.80;;;12.60;82.60;;;;;;5088043;28;20179;-65
2023/08/06 12:47:20;;;;;;;8.83;7.10;;;12.60;82.70;;;;;;5072111;28;20541;-65
2023/08/06 12:49:47;;;;;;;10.87;7.17;;;12.50;82.60;;;;;;5071955;28;20195;-64
2023/08/06 12:52:15;;;;;;;11.83;7.87;;;12.50;82.70;;;;;;5071506;28;20186;-65
2023/08/06 12:54:42;;;;;;;11.70;7.93;;;12.40;82.90;;;;;;5069153;28;20183;-64
2023/08/06 12:57:10;;;;;;;10.37;7.53;;;12.40;83.00;;;;;;5071988;28;20556;-64
2023/08/06 12:59:37;;;;;;;12.63;7.97;;;12.30;83.00;;;;;;5071389;28;20184;-65
2023/08/06 13:02:05;;;;;;;10.23;7.73;;;12.30;83.40;;;;;;5070544;28;20219;-64
2023/08/06 13:04:33;;;;;;;10.43;7.50;;;12.20;83.50;;;;;;5071257;28;20557;-64